sensor_id;sensor_type;location;lat;lon;timestamp;temperature;humidity
68826;DHT22;55841;53.392;10.086;2022-08-19T00:01:29;19.90;81.30
68826;DHT22;55841;53.392;10.086;2022-08-19T00:03:59;19.90;81.70
68826;DHT22;55841;53.392;10.086;2022-08-19T00:06:26;19.90;81.50
68826;DHT22;55841;53.392;10.086;2022-08-19T00:08:52;19.80;81.60
68826;DHT22;55841;53.392;10.086;2022-08-19T00:11:17;19.80;81.70
68826;DHT22;55841;53.392;10.086;2022-08-19T00:13:43;19.80;81.80
68826;DHT22;55841;53.392;10.086;2022-08-19T00:16:09;19.80;81.60
68826;DHT22;55841;53.392;10.086;2022-08-19T00:18:35;19.80;81.70
68826;DHT22;55841;53.392;10.086;2022-08-19T00:21:00;19.90;81.60
68826;DHT22;55841;53.392;10.086;2022-08-19T00:23:26;19.90;81.50
68826;DHT22;55841;53.392;10.086;2022-08-19T00:25:52;19.90;81.50
68826;DHT22;55841;53.392;10.086;2022-08-19T00:28:18;19.90;81.30
68826;DHT22;55841;53.392;10.086;2022-08-19T00:30:44;19.90;81.50
68826;DHT22;55841;53.392;10.086;2022-08-19T00:33:10;19.90;81.30
68826;DHT22;55841;53.392;10.086;2022-08-19T00:35:35;19.80;81.50
68826;DHT22;55841;53.392;10.086;2022-08-19T00:38:01;19.80;81.60
68826;DHT22;55841;53.392;10.086;2022-08-19T00:40:26;19.80;81.50
68826;DHT22;55841;53.392;10.086;2022-08-19T00:42:52;19.80;81.50
68826;DHT22;55841;53.392;10.086;2022-08-19T00:45:21;19.80;81.80
68826;DHT22;55841;53.392;10.086;2022-08-19T00:47:46;19.80;81.60
68826;DHT22;55841;53.392;10.086;2022-08-19T00:50:14;19.80;81.80
68826;DHT22;55841;53.392;10.086;2022-08-19T00:52:46;19.70;82.00
68826;DHT22;55841;53.392;10.086;2022-08-19T00:55:23;19.60;82.20
68826;DHT22;55841;53.392;10.086;2022-08-19T00:58:11;19.60;82.60
68826;DHT22;55841;53.392;10.086;2022-08-19T01:00:37;19.70;82.30
68826;DHT22;55841;53.392;10.086;2022-08-19T01:03:05;19.70;82.30
68826;DHT22;55841;53.392;10.086;2022-08-19T01:05:30;19.70;82.30
68826;DHT22;55841;53.392;10.086;2022-08-19T01:07:59;19.70;82.50
68826;DHT22;55841;53.392;10.086;2022-08-19T01:10:29;19.70;82.00
68826;DHT22;55841;53.392;10.086;2022-08-19T01:12:55;19.70;82.30
68826;DHT22;55841;53.392;10.086;2022-08-19T01:15:26;19.60;82.40
68826;DHT22;55841;53.392;10.086;2022-08-19T01:17:55;19.60;82.60
68826;DHT22;55841;53.392;10.086;2022-08-19T01:20:23;19.50;82.90
68826;DHT22;55841;53.392;10.086;2022-08-19T01:22:52;19.40;83.10
68826;DHT22;55841;53.392;10.086;2022-08-19T01:25:22;19.40;83.40
68826;DHT22;55841;53.392;10.086;2022-08-19T01:27:50;19.40;83.60
68826;DHT22;55841;53.392;10.086;2022-08-19T01:30:35;19.30;83.70
68826;DHT22;55841;53.392;10.086;2022-08-19T01:33:01;19.30;83.90
68826;DHT22;55841;53.392;10.086;2022-08-19T01:35:29;19.30;84.00
68826;DHT22;55841;53.392;10.086;2022-08-19T01:37:58;19.30;83.80
68826;DHT22;55841;53.392;10.086;2022-08-19T01:40:27;19.30;83.70
68826;DHT22;55841;53.392;10.086;2022-08-19T01:42:53;19.30;83.80
68826;DHT22;55841;53.392;10.086;2022-08-19T01:45:21;19.20;84.00
68826;DHT22;55841;53.392;10.086;2022-08-19T01:47:48;19.20;84.20
68826;DHT22;55841;53.392;10.086;2022-08-19T01:50:13;19.20;84.40
68826;DHT22;55841;53.392;10.086;2022-08-19T01:52:40;19.20;84.50
68826;DHT22;55841;53.392;10.086;2022-08-19T01:55:09;19.20;84.40
68826;DHT22;55841;53.392;10.086;2022-08-19T01:57:36;19.20;84.70
68826;DHT22;55841;53.392;10.086;2022-08-19T02:00:05;19.20;84.70
68826;DHT22;55841;53.392;10.086;2022-08-19T02:02:31;19.20;84.50
68826;DHT22;55841;53.392;10.086;2022-08-19T02:04:57;19.20;84.60
68826;DHT22;55841;53.392;10.086;2022-08-19T02:07:22;19.20;84.80
68826;DHT22;55841;53.392;10.086;2022-08-19T02:09:48;19.10;84.90
68826;DHT22;55841;53.392;10.086;2022-08-19T02:12:14;19.20;85.00
68826;DHT22;55841;53.392;10.086;2022-08-19T02:14:40;19.20;85.00
68826;DHT22;55841;53.392;10.086;2022-08-19T02:17:05;19.20;85.10
68826;DHT22;55841;53.392;10.086;2022-08-19T02:19:32;19.20;85.20
68826;DHT22;55841;53.392;10.086;2022-08-19T02:21:58;19.20;85.00
68826;DHT22;55841;53.392;10.086;2022-08-19T02:24:24;19.20;85.10
68826;DHT22;55841;53.392;10.086;2022-08-19T02:26:49;19.20;84.90
68826;DHT22;55841;53.392;10.086;2022-08-19T02:29:15;19.20;85.10
68826;DHT22;55841;53.392;10.086;2022-08-19T02:31:40;19.30;84.80
68826;DHT22;55841;53.392;10.086;2022-08-19T02:34:06;19.30;84.90
68826;DHT22;55841;53.392;10.086;2022-08-19T02:36:31;19.30;84.90
68826;DHT22;55841;53.392;10.086;2022-08-19T02:38:57;19.20;85.10
68826;DHT22;55841;53.392;10.086;2022-08-19T02:41:26;19.20;85.20
68826;DHT22;55841;53.392;10.086;2022-08-19T02:43:52;19.20;85.10
68826;DHT22;55841;53.392;10.086;2022-08-19T02:46:20;19.30;84.90
68826;DHT22;55841;53.392;10.086;2022-08-19T02:48:50;19.20;85.30
68826;DHT22;55841;53.392;10.086;2022-08-19T02:51:24;19.20;85.30
68826;DHT22;55841;53.392;10.086;2022-08-19T02:53:49;19.20;85.40
68826;DHT22;55841;53.392;10.086;2022-08-19T02:56:15;19.20;85.40
68826;DHT22;55841;53.392;10.086;2022-08-19T02:58:41;19.20;85.40
68826;DHT22;55841;53.392;10.086;2022-08-19T03:01:07;19.20;85.30
68826;DHT22;55841;53.392;10.086;2022-08-19T03:03:33;19.20;85.10
68826;DHT22;55841;53.392;10.086;2022-08-19T03:06:11;19.20;85.40
68826;DHT22;55841;53.392;10.086;2022-08-19T03:08:37;19.30;85.10
68826;DHT22;55841;53.392;10.086;2022-08-19T03:11:03;19.30;85.00
68826;DHT22;55841;53.392;10.086;2022-08-19T03:13:29;19.30;85.00
68826;DHT22;55841;53.392;10.086;2022-08-19T03:15:55;19.30;84.80
68826;DHT22;55841;53.392;10.086;2022-08-19T03:18:20;19.30;84.90
68826;DHT22;55841;53.392;10.086;2022-08-19T03:20:48;19.30;84.90
68826;DHT22;55841;53.392;10.086;2022-08-19T03:23:16;19.20;85.10
68826;DHT22;55841;53.392;10.086;2022-08-19T03:25:47;19.20;85.40
68826;DHT22;55841;53.392;10.086;2022-08-19T03:28:14;19.20;85.40
68826;DHT22;55841;53.392;10.086;2022-08-19T03:30:42;19.20;85.40
68826;DHT22;55841;53.392;10.086;2022-08-19T03:33:08;19.20;85.60
68826;DHT22;55841;53.392;10.086;2022-08-19T03:35:34;19.10;85.90
68826;DHT22;55841;53.392;10.086;2022-08-19T03:38:00;19.10;86.20
68826;DHT22;55841;53.392;10.086;2022-08-19T03:40:26;19.10;86.00
68826;DHT22;55841;53.392;10.086;2022-08-19T03:42:51;19.10;86.00
68826;DHT22;55841;53.392;10.086;2022-08-19T03:45:17;19.10;86.10
68826;DHT22;55841;53.392;10.086;2022-08-19T03:47:43;19.10;86.10
68826;DHT22;55841;53.392;10.086;2022-08-19T03:50:08;19.10;86.30
68826;DHT22;55841;53.392;10.086;2022-08-19T03:52:34;19.10;86.20
68826;DHT22;55841;53.392;10.086;2022-08-19T03:55:00;19.00;86.30
68826;DHT22;55841;53.392;10.086;2022-08-19T03:57:25;19.00;86.60
68826;DHT22;55841;53.392;10.086;2022-08-19T03:59:51;19.00;86.70
68826;DHT22;55841;53.392;10.086;2022-08-19T04:02:16;19.00;86.20
68826;DHT22;55841;53.392;10.086;2022-08-19T04:04:43;19.00;86.30
68826;DHT22;55841;53.392;10.086;2022-08-19T04:07:09;19.00;86.40
68826;DHT22;55841;53.392;10.086;2022-08-19T04:09:36;19.00;86.40
68826;DHT22;55841;53.392;10.086;2022-08-19T04:12:03;19.00;86.20
68826;DHT22;55841;53.392;10.086;2022-08-19T04:14:29;19.00;86.30
68826;DHT22;55841;53.392;10.086;2022-08-19T04:16:55;19.00;86.10
68826;DHT22;55841;53.392;10.086;2022-08-19T04:19:21;19.10;86.00
68826;DHT22;55841;53.392;10.086;2022-08-19T04:21:51;19.10;85.90
68826;DHT22;55841;53.392;10.086;2022-08-19T04:24:17;19.10;86.00
68826;DHT22;55841;53.392;10.086;2022-08-19T04:26:44;19.10;86.10
68826;DHT22;55841;53.392;10.086;2022-08-19T04:29:16;19.10;86.10
68826;DHT22;55841;53.392;10.086;2022-08-19T04:31:43;19.00;86.20
68826;DHT22;55841;53.392;10.086;2022-08-19T04:34:10;19.00;86.30
68826;DHT22;55841;53.392;10.086;2022-08-19T04:36:37;19.00;86.30
68826;DHT22;55841;53.392;10.086;2022-08-19T04:39:06;19.00;86.30
68826;DHT22;55841;53.392;10.086;2022-08-19T04:41:33;19.10;86.30
68826;DHT22;55841;53.392;10.086;2022-08-19T04:43:58;19.00;86.40
68826;DHT22;55841;53.392;10.086;2022-08-19T04:46:24;19.00;86.40
68826;DHT22;55841;53.392;10.086;2022-08-19T04:48:49;19.00;86.50
68826;DHT22;55841;53.392;10.086;2022-08-19T04:51:15;19.00;86.80
68826;DHT22;55841;53.392;10.086;2022-08-19T04:53:42;19.00;87.00
68826;DHT22;55841;53.392;10.086;2022-08-19T04:56:13;19.00;86.60
68826;DHT22;55841;53.392;10.086;2022-08-19T04:58:41;19.00;86.50
68826;DHT22;55841;53.392;10.086;2022-08-19T05:01:08;19.10;86.30
68826;DHT22;55841;53.392;10.086;2022-08-19T05:03:34;19.10;86.40
68826;DHT22;55841;53.392;10.086;2022-08-19T05:06:11;19.10;86.30
68826;DHT22;55841;53.392;10.086;2022-08-19T05:08:39;19.10;86.30
68826;DHT22;55841;53.392;10.086;2022-08-19T05:11:11;19.10;86.40
68826;DHT22;55841;53.392;10.086;2022-08-19T05:13:37;19.10;86.60
68826;DHT22;55841;53.392;10.086;2022-08-19T05:16:03;19.10;86.40
68826;DHT22;55841;53.392;10.086;2022-08-19T05:18:29;19.10;86.80
68826;DHT22;55841;53.392;10.086;2022-08-19T05:20:54;19.10;86.90
68826;DHT22;55841;53.392;10.086;2022-08-19T05:23:20;19.10;87.00
68826;DHT22;55841;53.392;10.086;2022-08-19T05:25:45;19.00;87.30
68826;DHT22;55841;53.392;10.086;2022-08-19T05:28:11;19.00;87.50
68826;DHT22;55841;53.392;10.086;2022-08-19T05:30:36;19.00;87.30
68826;DHT22;55841;53.392;10.086;2022-08-19T05:33:02;19.00;87.60
68826;DHT22;55841;53.392;10.086;2022-08-19T05:35:27;19.00;87.60
68826;DHT22;55841;53.392;10.086;2022-08-19T05:37:53;19.00;87.70
68826;DHT22;55841;53.392;10.086;2022-08-19T05:40:18;19.00;87.90
68826;DHT22;55841;53.392;10.086;2022-08-19T05:42:44;19.00;88.00
68826;DHT22;55841;53.392;10.086;2022-08-19T05:45:10;18.90;88.00
68826;DHT22;55841;53.392;10.086;2022-08-19T05:47:35;18.90;88.30
68826;DHT22;55841;53.392;10.086;2022-08-19T05:50:01;18.90;88.50
68826;DHT22;55841;53.392;10.086;2022-08-19T05:52:27;18.80;88.60
68826;DHT22;55841;53.392;10.086;2022-08-19T05:54:54;18.80;88.90
68826;DHT22;55841;53.392;10.086;2022-08-19T05:57:19;18.70;89.50
68826;DHT22;55841;53.392;10.086;2022-08-19T05:59:45;18.70;89.70
68826;DHT22;55841;53.392;10.086;2022-08-19T06:02:10;18.70;89.80
68826;DHT22;55841;53.392;10.086;2022-08-19T06:04:36;18.70;90.10
68826;DHT22;55841;53.392;10.086;2022-08-19T06:07:01;18.70;90.30
68826;DHT22;55841;53.392;10.086;2022-08-19T06:09:27;18.70;89.90
68826;DHT22;55841;53.392;10.086;2022-08-19T06:11:58;18.80;90.00
68826;DHT22;55841;53.392;10.086;2022-08-19T06:14:29;18.80;90.20
68826;DHT22;55841;53.392;10.086;2022-08-19T06:16:55;18.80;89.70
68826;DHT22;55841;53.392;10.086;2022-08-19T06:19:22;18.80;89.50
68826;DHT22;55841;53.392;10.086;2022-08-19T06:21:49;18.80;90.00
68826;DHT22;55841;53.392;10.086;2022-08-19T06:24:17;18.80;89.90
68826;DHT22;55841;53.392;10.086;2022-08-19T06:26:47;18.70;90.20
68826;DHT22;55841;53.392;10.086;2022-08-19T06:29:14;18.70;90.00
68826;DHT22;55841;53.392;10.086;2022-08-19T06:31:43;18.60;90.50
68826;DHT22;55841;53.392;10.086;2022-08-19T06:34:09;18.70;90.90
68826;DHT22;55841;53.392;10.086;2022-08-19T06:36:41;18.70;90.80
68826;DHT22;55841;53.392;10.086;2022-08-19T06:39:10;18.70;90.80
68826;DHT22;55841;53.392;10.086;2022-08-19T06:41:38;18.70;90.50
68826;DHT22;55841;53.392;10.086;2022-08-19T06:44:05;18.70;90.50
68826;DHT22;55841;53.392;10.086;2022-08-19T06:46:30;18.70;90.70
68826;DHT22;55841;53.392;10.086;2022-08-19T06:48:57;18.70;90.60
68826;DHT22;55841;53.392;10.086;2022-08-19T06:51:23;18.80;90.50
68826;DHT22;55841;53.392;10.086;2022-08-19T06:53:51;18.80;90.50
68826;DHT22;55841;53.392;10.086;2022-08-19T06:56:19;18.80;90.70
68826;DHT22;55841;53.392;10.086;2022-08-19T06:58:45;18.80;90.70
68826;DHT22;55841;53.392;10.086;2022-08-19T07:01:10;18.90;90.70
68826;DHT22;55841;53.392;10.086;2022-08-19T07:03:37;18.90;89.90
68826;DHT22;55841;53.392;10.086;2022-08-19T07:06:14;18.90;89.90
68826;DHT22;55841;53.392;10.086;2022-08-19T07:08:40;18.90;90.30
68826;DHT22;55841;53.392;10.086;2022-08-19T07:11:07;18.90;90.00
68826;DHT22;55841;53.392;10.086;2022-08-19T07:13:34;18.90;90.00
68826;DHT22;55841;53.392;10.086;2022-08-19T07:16:06;19.00;89.80
68826;DHT22;55841;53.392;10.086;2022-08-19T07:18:32;19.10;89.50
68826;DHT22;55841;53.392;10.086;2022-08-19T07:21:09;19.10;89.70
68826;DHT22;55841;53.392;10.086;2022-08-19T07:23:35;19.10;89.00
68826;DHT22;55841;53.392;10.086;2022-08-19T07:26:15;19.10;89.00
68826;DHT22;55841;53.392;10.086;2022-08-19T07:28:42;19.10;89.10
68826;DHT22;55841;53.392;10.086;2022-08-19T07:31:10;19.10;88.70
68826;DHT22;55841;53.392;10.086;2022-08-19T07:33:35;19.10;89.10
68826;DHT22;55841;53.392;10.086;2022-08-19T07:36:02;19.20;88.40
68826;DHT22;55841;53.392;10.086;2022-08-19T07:38:27;19.20;88.20
68826;DHT22;55841;53.392;10.086;2022-08-19T07:40:53;19.20;88.30
68826;DHT22;55841;53.392;10.086;2022-08-19T07:43:18;19.20;88.70
68826;DHT22;55841;53.392;10.086;2022-08-19T07:45:44;19.20;88.30
68826;DHT22;55841;53.392;10.086;2022-08-19T07:48:10;19.20;88.40
68826;DHT22;55841;53.392;10.086;2022-08-19T07:50:35;19.20;88.00
68826;DHT22;55841;53.392;10.086;2022-08-19T07:53:01;19.20;87.60
68826;DHT22;55841;53.392;10.086;2022-08-19T07:55:27;19.20;87.50
68826;DHT22;55841;53.392;10.086;2022-08-19T07:57:52;19.20;87.90
68826;DHT22;55841;53.392;10.086;2022-08-19T08:00:18;19.30;87.10
68826;DHT22;55841;53.392;10.086;2022-08-19T08:02:43;19.30;87.10
68826;DHT22;55841;53.392;10.086;2022-08-19T08:05:10;19.30;86.80
68826;DHT22;55841;53.392;10.086;2022-08-19T08:07:35;19.30;87.00
68826;DHT22;55841;53.392;10.086;2022-08-19T08:10:03;19.30;86.30
68826;DHT22;55841;53.392;10.086;2022-08-19T08:12:36;19.40;86.60
68826;DHT22;55841;53.392;10.086;2022-08-19T08:15:06;19.40;86.80
68826;DHT22;55841;53.392;10.086;2022-08-19T08:17:33;19.40;86.30
68826;DHT22;55841;53.392;10.086;2022-08-19T08:19:59;19.40;86.00
68826;DHT22;55841;53.392;10.086;2022-08-19T08:22:25;19.40;86.10
68826;DHT22;55841;53.392;10.086;2022-08-19T08:24:50;19.40;86.20
68826;DHT22;55841;53.392;10.086;2022-08-19T08:27:16;19.50;86.00
68826;DHT22;55841;53.392;10.086;2022-08-19T08:29:41;19.50;85.60
68826;DHT22;55841;53.392;10.086;2022-08-19T08:32:07;19.50;85.00
68826;DHT22;55841;53.392;10.086;2022-08-19T08:34:32;19.60;85.10
68826;DHT22;55841;53.392;10.086;2022-08-19T08:36:58;19.60;84.80
68826;DHT22;55841;53.392;10.086;2022-08-19T08:39:23;19.60;84.60
68826;DHT22;55841;53.392;10.086;2022-08-19T08:42:28;19.70;84.00
68826;DHT22;55841;53.392;10.086;2022-08-19T08:45:00;19.70;82.80
68826;DHT22;55841;53.392;10.086;2022-08-19T08:47:32;19.70;83.10
68826;DHT22;55841;53.392;10.086;2022-08-19T08:50:04;19.70;83.10
68826;DHT22;55841;53.392;10.086;2022-08-19T08:52:37;19.60;83.30
68826;DHT22;55841;53.392;10.086;2022-08-19T08:55:08;19.60;84.20
68826;DHT22;55841;53.392;10.086;2022-08-19T08:57:48;19.60;84.20
68826;DHT22;55841;53.392;10.086;2022-08-19T09:00:38;19.60;83.50
68826;DHT22;55841;53.392;10.086;2022-08-19T09:03:03;19.60;83.80
68826;DHT22;55841;53.392;10.086;2022-08-19T09:05:45;19.60;83.80
68826;DHT22;55841;53.392;10.086;2022-08-19T09:08:47;19.60;83.50
68826;DHT22;55841;53.392;10.086;2022-08-19T09:11:51;19.70;83.50
68826;DHT22;55841;53.392;10.086;2022-08-19T09:14:37;19.60;83.70
68826;DHT22;55841;53.392;10.086;2022-08-19T09:17:04;19.70;83.70
68826;DHT22;55841;53.392;10.086;2022-08-19T09:19:30;19.70;84.10
68826;DHT22;55841;53.392;10.086;2022-08-19T09:21:56;19.70;83.20
68826;DHT22;55841;53.392;10.086;2022-08-19T09:24:21;19.70;83.80
68826;DHT22;55841;53.392;10.086;2022-08-19T09:26:47;19.80;83.50
68826;DHT22;55841;53.392;10.086;2022-08-19T09:29:13;19.80;83.70
68826;DHT22;55841;53.392;10.086;2022-08-19T09:31:39;19.90;82.90
68826;DHT22;55841;53.392;10.086;2022-08-19T09:34:04;20.00;83.20
68826;DHT22;55841;53.392;10.086;2022-08-19T09:36:31;20.00;83.30
68826;DHT22;55841;53.392;10.086;2022-08-19T09:38:57;20.10;82.90
68826;DHT22;55841;53.392;10.086;2022-08-19T09:41:24;20.10;82.70
68826;DHT22;55841;53.392;10.086;2022-08-19T09:43:52;20.20;82.00
68826;DHT22;55841;53.392;10.086;2022-08-19T09:46:19;20.20;81.90
68826;DHT22;55841;53.392;10.086;2022-08-19T09:48:44;20.20;81.70
68826;DHT22;55841;53.392;10.086;2022-08-19T09:51:12;20.10;82.30
68826;DHT22;55841;53.392;10.086;2022-08-19T09:53:39;20.20;82.30
68826;DHT22;55841;53.392;10.086;2022-08-19T09:56:05;20.20;82.60
68826;DHT22;55841;53.392;10.086;2022-08-19T09:58:32;20.30;82.10
68826;DHT22;55841;53.392;10.086;2022-08-19T10:00:59;20.40;81.90
68826;DHT22;55841;53.392;10.086;2022-08-19T10:03:26;20.40;81.30
68826;DHT22;55841;53.392;10.086;2022-08-19T10:05:53;20.40;81.40
68826;DHT22;55841;53.392;10.086;2022-08-19T10:08:22;20.40;81.90
68826;DHT22;55841;53.392;10.086;2022-08-19T10:10:49;20.50;81.80
68826;DHT22;55841;53.392;10.086;2022-08-19T10:13:15;20.50;81.30
68826;DHT22;55841;53.392;10.086;2022-08-19T10:15:41;20.50;81.60
68826;DHT22;55841;53.392;10.086;2022-08-19T10:18:07;20.50;81.30
68826;DHT22;55841;53.392;10.086;2022-08-19T10:20:33;20.50;81.80
68826;DHT22;55841;53.392;10.086;2022-08-19T10:22:58;20.50;81.60
68826;DHT22;55841;53.392;10.086;2022-08-19T10:25:24;20.50;81.50
68826;DHT22;55841;53.392;10.086;2022-08-19T10:27:50;20.60;81.60
68826;DHT22;55841;53.392;10.086;2022-08-19T10:30:15;20.70;81.00
68826;DHT22;55841;53.392;10.086;2022-08-19T10:32:41;20.80;80.80
68826;DHT22;55841;53.392;10.086;2022-08-19T10:35:06;20.80;80.30
68826;DHT22;55841;53.392;10.086;2022-08-19T10:37:32;20.90;80.10
68826;DHT22;55841;53.392;10.086;2022-08-19T10:39:58;20.90;80.40
68826;DHT22;55841;53.392;10.086;2022-08-19T10:42:23;21.10;79.50
68826;DHT22;55841;53.392;10.086;2022-08-19T10:44:49;21.00;79.40
68826;DHT22;55841;53.392;10.086;2022-08-19T10:47:14;21.10;79.60
68826;DHT22;55841;53.392;10.086;2022-08-19T10:49:40;21.10;79.70
68826;DHT22;55841;53.392;10.086;2022-08-19T10:52:05;21.20;79.70
68826;DHT22;55841;53.392;10.086;2022-08-19T10:54:32;21.20;79.30
68826;DHT22;55841;53.392;10.086;2022-08-19T10:56:58;21.20;79.50
68826;DHT22;55841;53.392;10.086;2022-08-19T10:59:29;21.20;79.50
68826;DHT22;55841;53.392;10.086;2022-08-19T11:01:59;21.20;80.30
68826;DHT22;55841;53.392;10.086;2022-08-19T11:04:25;21.20;79.40
68826;DHT22;55841;53.392;10.086;2022-08-19T11:06:50;21.20;79.30
68826;DHT22;55841;53.392;10.086;2022-08-19T11:09:21;21.20;79.60
68826;DHT22;55841;53.392;10.086;2022-08-19T11:11:46;21.10;79.60
68826;DHT22;55841;53.392;10.086;2022-08-19T11:14:15;21.10;79.60
68826;DHT22;55841;53.392;10.086;2022-08-19T11:16:42;21.00;80.10
68826;DHT22;55841;53.392;10.086;2022-08-19T11:19:09;21.00;80.40
68826;DHT22;55841;53.392;10.086;2022-08-19T11:21:38;21.00;80.70
68826;DHT22;55841;53.392;10.086;2022-08-19T11:24:07;21.00;80.80
68826;DHT22;55841;53.392;10.086;2022-08-19T11:26:34;21.00;80.90
68826;DHT22;55841;53.392;10.086;2022-08-19T11:28:59;21.00;80.70
68826;DHT22;55841;53.392;10.086;2022-08-19T11:31:28;20.90;80.70
68826;DHT22;55841;53.392;10.086;2022-08-19T11:33:57;20.90;81.00
68826;DHT22;55841;53.392;10.086;2022-08-19T11:36:22;21.00;81.30
68826;DHT22;55841;53.392;10.086;2022-08-19T11:38:49;21.00;81.10
68826;DHT22;55841;53.392;10.086;2022-08-19T11:41:16;21.10;80.40
68826;DHT22;55841;53.392;10.086;2022-08-19T11:43:42;21.20;80.70
68826;DHT22;55841;53.392;10.086;2022-08-19T11:46:11;21.20;80.20
68826;DHT22;55841;53.392;10.086;2022-08-19T11:48:37;21.20;80.00
68826;DHT22;55841;53.392;10.086;2022-08-19T11:51:16;21.20;80.70
68826;DHT22;55841;53.392;10.086;2022-08-19T11:53:42;21.20;80.50
68826;DHT22;55841;53.392;10.086;2022-08-19T11:56:08;21.20;80.40
68826;DHT22;55841;53.392;10.086;2022-08-19T11:58:34;21.30;79.90
68826;DHT22;55841;53.392;10.086;2022-08-19T12:01:00;21.40;80.00
68826;DHT22;55841;53.392;10.086;2022-08-19T12:03:26;21.60;79.80
68826;DHT22;55841;53.392;10.086;2022-08-19T12:05:52;21.70;78.80
68826;DHT22;55841;53.392;10.086;2022-08-19T12:08:17;21.80;79.10
68826;DHT22;55841;53.392;10.086;2022-08-19T12:10:43;21.90;77.60
68826;DHT22;55841;53.392;10.086;2022-08-19T12:13:10;22.00;77.40
68826;DHT22;55841;53.392;10.086;2022-08-19T12:15:39;22.00;77.20
68826;DHT22;55841;53.392;10.086;2022-08-19T12:18:05;22.00;77.10
68826;DHT22;55841;53.392;10.086;2022-08-19T12:20:30;22.10;77.80
68826;DHT22;55841;53.392;10.086;2022-08-19T12:22:55;22.20;77.10
68826;DHT22;55841;53.392;10.086;2022-08-19T12:25:21;22.10;76.80
68826;DHT22;55841;53.392;10.086;2022-08-19T12:27:46;22.00;77.70
68826;DHT22;55841;53.392;10.086;2022-08-19T12:30:13;22.00;77.90
68826;DHT22;55841;53.392;10.086;2022-08-19T12:32:39;22.00;78.00
68826;DHT22;55841;53.392;10.086;2022-08-19T12:35:06;22.10;78.40
68826;DHT22;55841;53.392;10.086;2022-08-19T12:37:32;22.20;78.30
68826;DHT22;55841;53.392;10.086;2022-08-19T12:39:57;22.30;76.60
68826;DHT22;55841;53.392;10.086;2022-08-19T12:42:23;22.40;76.80
68826;DHT22;55841;53.392;10.086;2022-08-19T12:44:48;22.40;77.00
68826;DHT22;55841;53.392;10.086;2022-08-19T12:47:14;22.40;75.90
68826;DHT22;55841;53.392;10.086;2022-08-19T12:49:40;22.50;75.30
68826;DHT22;55841;53.392;10.086;2022-08-19T12:52:08;22.70;75.10
68826;DHT22;55841;53.392;10.086;2022-08-19T12:54:35;23.00;73.50
68826;DHT22;55841;53.392;10.086;2022-08-19T12:57:05;23.20;72.60
68826;DHT22;55841;53.392;10.086;2022-08-19T12:59:31;23.80;70.30
68826;DHT22;55841;53.392;10.086;2022-08-19T13:01:56;24.20;70.90
68826;DHT22;55841;53.392;10.086;2022-08-19T13:04:22;24.20;68.90
68826;DHT22;55841;53.392;10.086;2022-08-19T13:06:47;24.00;69.40
68826;DHT22;55841;53.392;10.086;2022-08-19T13:09:13;24.10;69.20
68826;DHT22;55841;53.392;10.086;2022-08-19T13:11:38;24.40;69.70
68826;DHT22;55841;53.392;10.086;2022-08-19T13:14:04;24.80;67.70
68826;DHT22;55841;53.392;10.086;2022-08-19T13:16:30;25.00;67.00
68826;DHT22;55841;53.392;10.086;2022-08-19T13:18:56;24.80;66.20
68826;DHT22;55841;53.392;10.086;2022-08-19T13:21:25;24.80;66.80
68826;DHT22;55841;53.392;10.086;2022-08-19T13:23:51;25.10;66.20
68826;DHT22;55841;53.392;10.086;2022-08-19T13:26:18;25.30;66.20
68826;DHT22;55841;53.392;10.086;2022-08-19T13:28:44;25.60;64.20
68826;DHT22;55841;53.392;10.086;2022-08-19T13:31:10;25.60;64.50
68826;DHT22;55841;53.392;10.086;2022-08-19T13:33:35;25.50;65.40
68826;DHT22;55841;53.392;10.086;2022-08-19T13:36:01;25.30;66.10
68826;DHT22;55841;53.392;10.086;2022-08-19T13:38:28;25.20;66.00
68826;DHT22;55841;53.392;10.086;2022-08-19T13:40:54;25.10;66.60
68826;DHT22;55841;53.392;10.086;2022-08-19T13:43:22;25.00;66.20
68826;DHT22;55841;53.392;10.086;2022-08-19T13:45:53;24.90;66.50
68826;DHT22;55841;53.392;10.086;2022-08-19T13:48:18;24.90;66.90
68826;DHT22;55841;53.392;10.086;2022-08-19T13:50:45;24.90;66.50
68826;DHT22;55841;53.392;10.086;2022-08-19T13:53:11;24.60;67.20
68826;DHT22;55841;53.392;10.086;2022-08-19T13:55:38;24.50;67.80
68826;DHT22;55841;53.392;10.086;2022-08-19T13:58:04;24.30;68.00
68826;DHT22;55841;53.392;10.086;2022-08-19T14:00:34;24.20;68.20
68826;DHT22;55841;53.392;10.086;2022-08-19T14:03:00;24.20;69.20
68826;DHT22;55841;53.392;10.086;2022-08-19T14:05:26;24.20;68.80
68826;DHT22;55841;53.392;10.086;2022-08-19T14:07:52;24.10;69.50
68826;DHT22;55841;53.392;10.086;2022-08-19T14:10:18;24.00;69.20
68826;DHT22;55841;53.392;10.086;2022-08-19T14:12:44;23.90;70.10
68826;DHT22;55841;53.392;10.086;2022-08-19T14:15:10;23.80;70.30
68826;DHT22;55841;53.392;10.086;2022-08-19T14:17:40;23.90;70.40
68826;DHT22;55841;53.392;10.086;2022-08-19T14:20:08;24.00;69.90
68826;DHT22;55841;53.392;10.086;2022-08-19T14:22:39;24.00;69.70
68826;DHT22;55841;53.392;10.086;2022-08-19T14:25:07;23.90;69.60
68826;DHT22;55841;53.392;10.086;2022-08-19T14:27:34;23.80;69.90
68826;DHT22;55841;53.392;10.086;2022-08-19T14:30:00;23.80;70.10
68826;DHT22;55841;53.392;10.086;2022-08-19T14:32:25;23.90;69.90
68826;DHT22;55841;53.392;10.086;2022-08-19T14:34:50;23.90;69.20
68826;DHT22;55841;53.392;10.086;2022-08-19T14:37:16;23.90;68.80
68826;DHT22;55841;53.392;10.086;2022-08-19T14:39:42;24.10;68.70
68826;DHT22;55841;53.392;10.086;2022-08-19T14:42:09;24.30;68.70
68826;DHT22;55841;53.392;10.086;2022-08-19T14:44:35;24.40;66.80
68826;DHT22;55841;53.392;10.086;2022-08-19T14:47:01;24.40;66.60
68826;DHT22;55841;53.392;10.086;2022-08-19T14:49:27;24.50;66.20
68826;DHT22;55841;53.392;10.086;2022-08-19T14:51:52;24.60;66.40
68826;DHT22;55841;53.392;10.086;2022-08-19T14:54:18;24.70;65.30
68826;DHT22;55841;53.392;10.086;2022-08-19T14:56:43;25.10;64.10
68826;DHT22;55841;53.392;10.086;2022-08-19T14:59:09;25.50;64.10
68826;DHT22;55841;53.392;10.086;2022-08-19T15:01:34;25.60;62.50
68826;DHT22;55841;53.392;10.086;2022-08-19T15:04:00;25.50;63.00
68826;DHT22;55841;53.392;10.086;2022-08-19T15:06:26;25.50;64.20
68826;DHT22;55841;53.392;10.086;2022-08-19T15:08:52;25.50;63.70
68826;DHT22;55841;53.392;10.086;2022-08-19T15:11:20;25.40;63.40
68826;DHT22;55841;53.392;10.086;2022-08-19T15:13:47;25.30;64.50
68826;DHT22;55841;53.392;10.086;2022-08-19T15:16:13;25.30;63.40